sensor_id;sensor_type;location;lat;lon;timestamp;pressure;altitude;pressure_sealevel;temperature;humidity
24788;BME280;12883;52.662;5.196;2023-02-21T00:01:47;101919.41;;;10.64;100.00
24788;BME280;12883;52.662;5.196;2023-02-21T00:04:31;101927.72;;;10.61;100.00
24788;BME280;12883;52.662;5.196;2023-02-21T00:07:15;101940.81;;;10.63;100.00
24788;BME280;12883;52.662;5.196;2023-02-21T00:09:59;101923.06;;;10.63;100.00
24788;BME280;12883;52.662;5.196;2023-02-21T00:12:43;101928.53;;;10.62;100.00
24788;BME280;12883;52.662;5.196;2023-02-21T00:15:27;101946.31;;;10.61;100.00
24788;BME280;12883;52.662;5.196;2023-02-21T00:18:11;101940.16;;;10.61;100.00
24788;BME280;12883;52.662;5.196;2023-02-21T00:20:55;101938.66;;;10.58;100.00
24788;BME280;12883;52.662;5.196;2023-02-21T00:23:39;101932.72;;;10.56;100.00
24788;BME280;12883;52.662;5.196;2023-02-21T00:26:23;101946.16;;;10.55;100.00
24788;BME280;12883;52.662;5.196;2023-02-21T00:29:07;101928.69;;;10.60;100.00
24788;BME280;12883;52.662;5.196;2023-02-21T00:31:52;101932.88;;;10.55;100.00
24788;BME280;12883;52.662;5.196;2023-02-21T00:34:36;101936.19;;;10.57;100.00
24788;BME280;12883;52.662;5.196;2023-02-21T00:37:20;101929.91;;;10.50;100.00
24788;BME280;12883;52.662;5.196;2023-02-21T00:40:05;101926.44;;;10.49;100.00
24788;BME280;12883;52.662;5.196;2023-02-21T00:42:49;101934.88;;;10.53;100.00
24788;BME280;12883;52.662;5.196;2023-02-21T00:45:33;101934.53;;;10.56;100.00
24788;BME280;12883;52.662;5.196;2023-02-21T00:48:22;101942.81;;;10.61;100.00
24788;BME280;12883;52.662;5.196;2023-02-21T00:51:06;101940.50;;;10.50;100.00
24788;BME280;12883;52.662;5.196;2023-02-21T00:53:50;101930.88;;;10.57;100.00
24788;BME280;12883;52.662;5.196;2023-02-21T00:56:34;101921.44;;;10.54;100.00
24788;BME280;12883;52.662;5.196;2023-02-21T00:59:18;101848.47;;;10.12;100.00
24788;BME280;12883;52.662;5.196;2023-02-21T01:02:03;101913.97;;;10.58;100.00
24788;BME280;12883;52.662;5.196;2023-02-21T01:04:47;101911.00;;;10.53;100.00
24788;BME280;12883;52.662;5.196;2023-02-21T01:07:30;101921.09;;;10.57;100.00
24788;BME280;12883;52.662;5.196;2023-02-21T01:10:15;101903.84;;;10.53;100.00
24788;BME280;12883;52.662;5.196;2023-02-21T01:12:59;101897.38;;;10.56;100.00
24788;BME280;12883;52.662;5.196;2023-02-21T01:15:43;101900.38;;;10.53;100.00
24788;BME280;12883;52.662;5.196;2023-02-21T01:18:27;101905.34;;;10.56;100.00
24788;BME280;12883;52.662;5.196;2023-02-21T01:21:13;101904.31;;;10.57;100.00
24788;BME280;12883;52.662;5.196;2023-02-21T01:23:57;101904.84;;;10.52;100.00
24788;BME280;12883;52.662;5.196;2023-02-21T01:26:41;101896.72;;;10.54;100.00
24788;BME280;12883;52.662;5.196;2023-02-21T01:29:25;101907.81;;;10.57;100.00
24788;BME280;12883;52.662;5.196;2023-02-21T01:32:08;101913.16;;;10.49;100.00
24788;BME280;12883;52.662;5.196;2023-02-21T01:34:52;101898.22;;;10.56;100.00
24788;BME280;12883;52.662;5.196;2023-02-21T01:37:39;101902.03;;;10.54;100.00
24788;BME280;12883;52.662;5.196;2023-02-21T01:40:23;101898.38;;;10.55;100.00
24788;BME280;12883;52.662;5.196;2023-02-21T01:43:15;101893.06;;;10.55;100.00
24788;BME280;12883;52.662;5.196;2023-02-21T01:45:59;101894.91;;;10.54;100.00
24788;BME280;12883;52.662;5.196;2023-02-21T01:48:43;101891.72;;;10.59;100.00
24788;BME280;12883;52.662;5.196;2023-02-21T01:51:32;101899.34;;;10.62;100.00
24788;BME280;12883;52.662;5.196;2023-02-21T01:54:18;101899.22;;;10.55;100.00
24788;BME280;12883;52.662;5.196;2023-02-21T01:57:04;101904.31;;;10.57;100.00
24788;BME280;12883;52.662;5.196;2023-02-21T01:59:49;101903.69;;;10.55;100.00
24788;BME280;12883;52.662;5.196;2023-02-21T02:02:43;101902.50;;;10.57;100.00
24788;BME280;12883;52.662;5.196;2023-02-21T02:05:30;101898.38;;;10.55;100.00
24788;BME280;12883;52.662;5.196;2023-02-21T02:08:17;101901.19;;;10.53;100.00
24788;BME280;12883;52.662;5.196;2023-02-21T02:36:09;101876.19;;;10.48;100.00
24788;BME280;12883;52.662;5.196;2023-02-21T02:38:51;101884.97;;;10.48;100.00
24788;BME280;12883;52.662;5.196;2023-02-21T02:41:26;101886.94;;;10.54;100.00
24788;BME280;12883;52.662;5.196;2023-02-21T02:44:23;101884.47;;;10.53;100.00
24788;BME280;12883;52.662;5.196;2023-02-21T02:46:53;101876.50;;;10.53;100.00
24788;BME280;12883;52.662;5.196;2023-02-21T02:49:24;101884.28;;;10.54;100.00
24788;BME280;12883;52.662;5.196;2023-02-21T02:51:52;101873.19;;;10.51;100.00
24788;BME280;12883;52.662;5.196;2023-02-21T02:54:17;101834.13;;;10.29;100.00
24788;BME280;12883;52.662;5.196;2023-02-21T02:56:43;101832.28;;;10.37;100.00
24788;BME280;12883;52.662;5.196;2023-02-21T02:59:12;101875.63;;;10.60;100.00
24788;BME280;12883;52.662;5.196;2023-02-21T03:07:16;101857.03;;;10.60;100.00
24788;BME280;12883;52.662;5.196;2023-02-21T03:12:56;101873.91;;;10.67;100.00
24788;BME280;12883;52.662;5.196;2023-02-21T03:15:32;101897.03;;;10.59;100.00
24788;BME280;12883;52.662;5.196;2023-02-21T03:18:11;101867.00;;;10.58;100.00
24788;BME280;12883;52.662;5.196;2023-02-21T03:20:42;101890.41;;;10.55;100.00
24788;BME280;12883;52.662;5.196;2023-02-21T03:23:10;101884.75;;;10.66;100.00
24788;BME280;12883;52.662;5.196;2023-02-21T03:25:38;101877.78;;;10.65;100.00
24788;BME280;12883;52.662;5.196;2023-02-21T03:28:05;101884.09;;;10.56;100.00
24788;BME280;12883;52.662;5.196;2023-02-21T03:30:30;101884.47;;;10.53;100.00
24788;BME280;12883;52.662;5.196;2023-02-21T03:32:56;101889.56;;;10.62;100.00
24788;BME280;12883;52.662;5.196;2023-02-21T03:35:22;101892.75;;;10.58;100.00
24788;BME280;12883;52.662;5.196;2023-02-21T03:37:50;101880.13;;;10.60;100.00
24788;BME280;12883;52.662;5.196;2023-02-21T03:40:24;101887.75;;;10.55;100.00
24788;BME280;12883;52.662;5.196;2023-02-21T03:42:51;101892.38;;;10.61;100.00
24788;BME280;12883;52.662;5.196;2023-02-21T03:45:17;101897.84;;;10.59;100.00
24788;BME280;12883;52.662;5.196;2023-02-21T03:47:42;101886.91;;;10.62;100.00
24788;BME280;12883;52.662;5.196;2023-02-21T03:50:08;101888.41;;;10.57;100.00
24788;BME280;12883;52.662;5.196;2023-02-21T03:52:33;101892.06;;;10.56;100.00
24788;BME280;12883;52.662;5.196;2023-02-21T03:54:59;101890.72;;;10.60;100.00
24788;BME280;12883;52.662;5.196;2023-02-21T03:57:24;101885.44;;;10.60;100.00
24788;BME280;12883;52.662;5.196;2023-02-21T03:59:50;101884.78;;;10.58;100.00
24788;BME280;12883;52.662;5.196;2023-02-21T04:02:15;101889.72;;;10.61;100.00
24788;BME280;12883;52.662;5.196;2023-02-21T04:04:41;101886.44;;;10.59;100.00
24788;BME280;12883;52.662;5.196;2023-02-21T04:07:07;101880.59;;;10.63;100.00
24788;BME280;12883;52.662;5.196;2023-02-21T04:09:32;101824.25;;;10.23;100.00
24788;BME280;12883;52.662;5.196;2023-02-21T04:11:58;101872.81;;;10.62;100.00
24788;BME280;12883;52.662;5.196;2023-02-21T04:14:23;101881.59;;;10.62;100.00
24788;BME280;12883;52.662;5.196;2023-02-21T04:16:48;101878.28;;;10.60;100.00
24788;BME280;12883;52.662;5.196;2023-02-21T04:19:14;101873.47;;;10.56;100.00
24788;BME280;12883;52.662;5.196;2023-02-21T04:21:39;101881.75;;;10.61;100.00
24788;BME280;12883;52.662;5.196;2023-02-21T04:24:05;101877.78;;;10.65;100.00
24788;BME280;12883;52.662;5.196;2023-02-21T04:26:30;101887.72;;;10.63;100.00
24788;BME280;12883;52.662;5.196;2023-02-21T04:28:55;101888.25;;;10.58;100.00
24788;BME280;12883;52.662;5.196;2023-02-21T04:31:22;101887.75;;;10.55;100.00
24788;BME280;12883;52.662;5.196;2023-02-21T04:33:47;101891.91;;;10.57;100.00
24788;BME280;12883;52.662;5.196;2023-02-21T04:36:13;101871.84;;;10.55;100.00
24788;BME280;12883;52.662;5.196;2023-02-21T04:38:38;101876.50;;;10.53;100.00
24788;BME280;12883;52.662;5.196;2023-02-21T04:41:03;101882.41;;;10.63;100.00
24788;BME280;12883;52.662;5.196;2023-02-21T04:43:29;101887.06;;;10.61;100.00
24788;BME280;12883;52.662;5.196;2023-02-21T04:45:55;101878.47;;;10.59;100.00
24788;BME280;12883;52.662;5.196;2023-02-21T04:48:20;101877.78;;;10.57;100.00
24788;BME280;12883;52.662;5.196;2023-02-21T04:50:46;101866.53;;;10.55;100.00
24788;BME280;12883;52.662;5.196;2023-02-21T04:53:11;101834.63;;;10.32;100.00
24788;BME280;12883;52.662;5.196;2023-02-21T04:55:37;101870.50;;;10.59;100.00
24788;BME280;12883;52.662;5.196;2023-02-21T04:58:02;101842.56;;;10.32;100.00
24788;BME280;12883;52.662;5.196;2023-02-21T05:00:28;101880.91;;;10.60;100.00
24788;BME280;12883;52.662;5.196;2023-02-21T05:02:53;101875.41;;;10.70;100.00
24788;BME280;12883;52.662;5.196;2023-02-21T05:05:19;101879.44;;;10.66;100.00
24788;BME280;12883;52.662;5.196;2023-02-21T05:07:44;101879.91;;;10.69;100.00
24788;BME280;12883;52.662;5.196;2023-02-21T05:10:10;101876.94;;;10.64;100.00
24788;BME280;12883;52.662;5.196;2023-02-21T05:12:36;101878.75;;;10.64;100.00
24788;BME280;12883;52.662;5.196;2023-02-21T05:15:05;101887.06;;;10.61;100.00
24788;BME280;12883;52.662;5.196;2023-02-21T05:17:30;101871.03;;;10.54;100.00
24788;BME280;12883;52.662;5.196;2023-02-21T05:19:56;101883.41;;;10.62;100.00
24788;BME280;12883;52.662;5.196;2023-02-21T05:22:21;101889.72;;;10.61;100.00
24788;BME280;12883;52.662;5.196;2023-02-21T05:24:47;101851.84;;;10.36;100.00
24788;BME280;12883;52.662;5.196;2023-02-21T05:27:20;101894.22;;;10.52;100.00
24788;BME280;12883;52.662;5.196;2023-02-21T05:29:50;101892.75;;;10.58;100.00
24788;BME280;12883;52.662;5.196;2023-02-21T05:32:17;101894.38;;;10.59;100.00
24788;BME280;12883;52.662;5.196;2023-02-21T05:34:42;101895.06;;;10.53;100.00
24788;BME280;12883;52.662;5.196;2023-02-21T05:37:13;101897.88;;;10.51;100.00
24788;BME280;12883;52.662;5.196;2023-02-21T05:39:38;101890.56;;;10.53;100.00
24788;BME280;12883;52.662;5.196;2023-02-21T05:42:04;101901.69;;;10.57;100.00
24788;BME280;12883;52.662;5.196;2023-02-21T05:44:29;101881.00;;;10.44;100.00
24788;BME280;12883;52.662;5.196;2023-02-21T05:46:54;101899.06;;;10.49;100.00
24788;BME280;12883;52.662;5.196;2023-02-21T05:49:20;101897.75;;;10.45;100.00
24788;BME280;12883;52.662;5.196;2023-02-21T05:51:45;101898.78;;;10.44;100.00
24788;BME280;12883;52.662;5.196;2023-02-21T05:54:17;101886.03;;;10.31;100.00
24788;BME280;12883;52.662;5.196;2023-02-21T05:56:46;101899.25;;;10.47;100.00
24788;BME280;12883;52.662;5.196;2023-02-21T05:59:13;101900.75;;;10.42;100.00
24788;BME280;12883;52.662;5.196;2023-02-21T06:01:38;101890.81;;;10.36;100.00
24788;BME280;12883;52.662;5.196;2023-02-21T06:04:04;101898.25;;;10.48;100.00
24788;BME280;12883;52.662;5.196;2023-02-21T06:06:34;101896.91;;;10.44;100.00
24788;BME280;12883;52.662;5.196;2023-02-21T06:09:00;101909.66;;;10.49;100.00
24788;BME280;12883;52.662;5.196;2023-02-21T06:11:27;101894.44;;;10.43;100.00
24788;BME280;12883;52.662;5.196;2023-02-21T06:13:54;101894.09;;;10.46;100.00
24788;BME280;12883;52.662;5.196;2023-02-21T06:16:21;101898.56;;;10.45;100.00
24788;BME280;12883;52.662;5.196;2023-02-21T06:18:51;101891.13;;;10.41;100.00
24788;BME280;12883;52.662;5.196;2023-02-21T06:21:17;101892.47;;;10.45;100.00
24788;BME280;12883;52.662;5.196;2023-02-21T06:23:42;101900.22;;;10.46;100.00
24788;BME280;12883;52.662;5.196;2023-02-21T06:26:07;101890.81;;;10.44;100.00
24788;BME280;12883;52.662;5.196;2023-02-21T06:28:33;101909.72;;;10.41;100.00
24788;BME280;12883;52.662;5.196;2023-02-21T06:30:58;101910.56;;;10.33;100.00
24788;BME280;12883;52.662;5.196;2023-02-21T06:33:24;101907.91;;;10.41;100.00
24788;BME280;12883;52.662;5.196;2023-02-21T06:35:49;101909.06;;;10.39;100.00
24788;BME280;12883;52.662;5.196;2023-02-21T06:38:15;101905.41;;;10.40;100.00
24788;BME280;12883;52.662;5.196;2023-02-21T06:40:40;101899.63;;;10.36;100.00
24788;BME280;12883;52.662;5.196;2023-02-21T06:43:06;101908.09;;;10.32;100.00
24788;BME280;12883;52.662;5.196;2023-02-21T06:45:31;101886.22;;;10.22;100.00
24788;BME280;12883;52.662;5.196;2023-02-21T06:47:56;101910.38;;;10.35;100.00
24788;BME280;12883;52.662;5.196;2023-02-21T06:50:22;101875.28;;;10.25;100.00
24788;BME280;12883;52.662;5.196;2023-02-21T06:52:47;101893.94;;;10.39;100.00
24788;BME280;12883;52.662;5.196;2023-02-21T06:55:12;101892.66;;;10.35;100.00
24788;BME280;12883;52.662;5.196;2023-02-21T06:57:38;101893.81;;;10.33;100.00
24788;BME280;12883;52.662;5.196;2023-02-21T07:00:04;101866.53;;;10.16;100.00
24788;BME280;12883;52.662;5.196;2023-02-21T07:02:30;101891.28;;;10.39;100.00
24788;BME280;12883;52.662;5.196;2023-02-21T07:04:55;101882.03;;;10.35;100.00
24788;BME280;12883;52.662;5.196;2023-02-21T07:07:21;101885.69;;;10.34;100.00
24788;BME280;12883;52.662;5.196;2023-02-21T07:09:46;101892.13;;;10.40;100.00
24788;BME280;12883;52.662;5.196;2023-02-21T07:12:11;101894.97;;;10.30;100.00
24788;BME280;12883;52.662;5.196;2023-02-21T07:14:37;101884.84;;;10.34;100.00
24788;BME280;12883;52.662;5.196;2023-02-21T07:17:02;101887.38;;;10.19;100.00
24788;BME280;12883;52.662;5.196;2023-02-21T07:19:28;101893.47;;;10.44;100.00
24788;BME280;12883;52.662;5.196;2023-02-21T07:21:53;101895.63;;;10.40;100.00
24788;BME280;12883;52.662;5.196;2023-02-21T07:24:18;101898.78;;;10.36;100.00
24788;BME280;12883;52.662;5.196;2023-02-21T07:26:44;101897.13;;;10.35;100.00
24788;BME280;12883;52.662;5.196;2023-02-21T07:29:09;101883.22;;;10.33;100.00
24788;BME280;12883;52.662;5.196;2023-02-21T07:31:34;101884.81;;;10.42;100.00
24788;BME280;12883;52.662;5.196;2023-02-21T07:34:00;101889.47;;;10.40;100.00
24788;BME280;12883;52.662;5.196;2023-02-21T07:36:25;101862.22;;;10.15;100.00
24788;BME280;12883;52.662;5.196;2023-02-21T07:38:51;101905.41;;;10.40;100.00
24788;BME280;12883;52.662;5.196;2023-02-21T07:41:17;101907.69;;;10.43;100.00
24788;BME280;12883;52.662;5.196;2023-02-21T07:43:43;101906.38;;;10.47;100.00
24788;BME280;12883;52.662;5.196;2023-02-21T07:46:13;101904.72;;;10.46;100.00
24788;BME280;12883;52.662;5.196;2023-02-21T07:48:38;101915.19;;;10.39;100.00
24788;BME280;12883;52.662;5.196;2023-02-21T07:51:06;101916.19;;;10.38;100.00
24788;BME280;12883;52.662;5.196;2023-02-21T07:53:31;101909.38;;;10.44;100.00
24788;BME280;12883;52.662;5.196;2023-02-21T07:55:57;101913.34;;;10.48;100.00
24788;BME280;12883;52.662;5.196;2023-02-21T07:58:22;101918.63;;;10.48;100.00
24788;BME280;12883;52.662;5.196;2023-02-21T08:00:47;101913.19;;;10.41;100.00
24788;BME280;12883;52.662;5.196;2023-02-21T08:03:13;101919.00;;;10.45;100.00
24788;BME280;12883;52.662;5.196;2023-02-21T08:05:39;101872.31;;;10.20;100.00
24788;BME280;12883;52.662;5.196;2023-02-21T08:08:09;101917.66;;;10.41;100.00
24788;BME280;12883;52.662;5.196;2023-02-21T08:10:35;101937.06;;;10.49;100.00
24788;BME280;12883;52.662;5.196;2023-02-21T08:13:01;101913.50;;;10.46;100.00
24788;BME280;12883;52.662;5.196;2023-02-21T08:15:26;101877.63;;;10.20;100.00
24788;BME280;12883;52.662;5.196;2023-02-21T08:17:51;101920.47;;;10.47;100.00
24788;BME280;12883;52.662;5.196;2023-02-21T08:20:17;101920.81;;;10.44;100.00
24788;BME280;12883;52.662;5.196;2023-02-21T08:22:43;101917.00;;;10.47;100.00
24788;BME280;12883;52.662;5.196;2023-02-21T08:25:10;101923.13;;;10.47;100.00
24788;BME280;12883;52.662;5.196;2023-02-21T08:27:39;101922.78;;;10.50;100.00
24788;BME280;12883;52.662;5.196;2023-02-21T08:30:06;101921.78;;;10.51;100.00
24788;BME280;12883;52.662;5.196;2023-02-21T08:32:33;101929.91;;;10.58;100.00
24788;BME280;12883;52.662;5.196;2023-02-21T08:34:59;101894.47;;;10.35;100.00
24788;BME280;12883;52.662;5.196;2023-02-21T08:37:25;101858.25;;;10.11;100.00
24788;BME280;12883;52.662;5.196;2023-02-21T08:39:57;101910.63;;;10.56;100.00
24788;BME280;12883;52.662;5.196;2023-02-21T08:42:23;101909.00;;;10.55;100.00
24788;BME280;12883;52.662;5.196;2023-02-21T08:44:48;101912.28;;;10.57;100.00
24788;BME280;12883;52.662;5.196;2023-02-21T08:47:14;101923.09;;;10.55;100.00
24788;BME280;12883;52.662;5.196;2023-02-21T08:49:43;101912.97;;;10.59;100.00
24788;BME280;12883;52.662;5.196;2023-02-21T08:52:09;101906.50;;;10.53;100.00
24788;BME280;12883;52.662;5.196;2023-02-21T08:54:35;101863.31;;;10.29;100.00
24788;BME280;12883;52.662;5.196;2023-02-21T08:57:00;101906.97;;;10.57;100.00
24788;BME280;12883;52.662;5.196;2023-02-21T08:59:26;101896.19;;;10.58;100.00
24788;BME280;12883;52.662;5.196;2023-02-21T09:01:58;101895.41;;;10.58;100.00
24788;BME280;12883;52.662;5.196;2023-02-21T09:04:23;101897.13;;;10.73;100.00
24788;BME280;12883;52.662;5.196;2023-02-21T09:06:49;101896.47;;;10.71;100.00
24788;BME280;12883;52.662;5.196;2023-02-21T09:09:15;101903.00;;;10.61;100.00
24788;BME280;12883;52.662;5.196;2023-02-21T09:11:40;101896.00;;;10.68;100.00
24788;BME280;12883;52.662;5.196;2023-02-21T09:14:11;101892.88;;;10.64;100.00
24788;BME280;12883;52.662;5.196;2023-02-21T09:16:36;101899.50;;;10.68;100.00
24788;BME280;12883;52.662;5.196;2023-02-21T09:19:02;101902.09;;;10.76;100.00
24788;BME280;12883;52.662;5.196;2023-02-21T09:21:31;101898.44;;;10.77;100.00
24788;BME280;12883;52.662;5.196;2023-02-21T09:23:56;101897.66;;;10.69;100.00
24788;BME280;12883;52.662;5.196;2023-02-21T09:26:24;101896.44;;;10.79;100.00
24788;BME280;12883;52.662;5.196;2023-02-21T09:28:50;101893.94;;;10.78;100.00
24788;BME280;12883;52.662;5.196;2023-02-21T09:31:17;101884.66;;;10.82;100.00
24788;BME280;12883;52.662;5.196;2023-02-21T09:33:43;101889.59;;;10.85;100.00
24788;BME280;12883;52.662;5.196;2023-02-21T09:36:10;101886.13;;;10.84;100.00
24788;BME280;12883;52.662;5.196;2023-02-21T09:38:36;101878.94;;;10.93;100.00
24788;BME280;12883;52.662;5.196;2023-02-21T09:41:08;101873.22;;;10.73;100.00
24788;BME280;12883;52.662;5.196;2023-02-21T09:43:37;101879.75;;;10.93;100.00
24788;BME280;12883;52.662;5.196;2023-02-21T09:46:08;101879.91;;;10.92;100.00
24788;BME280;12883;52.662;5.196;2023-02-21T09:48:35;101883.25;;;10.94;100.00
24788;BME280;12883;52.662;5.196;2023-02-21T09:51:03;101881.72;;;10.99;100.00
24788;BME280;12883;52.662;5.196;2023-02-21T09:53:32;101866.97;;;10.97;100.00
24788;BME280;12883;52.662;5.196;2023-02-21T09:56:03;101880.53;;;11.02;100.00
24788;BME280;12883;52.662;5.196;2023-02-21T09:58:29;101883.31;;;11.08;100.00
24788;BME280;12883;52.662;5.196;2023-02-21T10:01:01;101882.34;;;11.09;100.00
24788;BME280;12883;52.662;5.196;2023-02-21T10:04:00;101698.38;;;10.03;100.00
24788;BME280;12883;52.662;5.196;2023-02-21T10:06:41;101875.81;;;11.12;100.00
24788;BME280;12883;52.662;5.196;2023-02-21T10:09:36;101881.75;;;11.22;100.00
24788;BME280;12883;52.662;5.196;2023-02-21T10:12:06;101885.03;;;11.24;100.00
24788;BME280;12883;52.662;5.196;2023-02-21T10:17:20;101888.16;;;11.27;100.00
24788;BME280;12883;52.662;5.196;2023-02-21T10:19:54;101867.16;;;11.18;100.00
24788;BME280;12883;52.662;5.196;2023-02-21T10:22:26;101896.59;;;11.31;100.00
24788;BME280;12883;52.662;5.196;2023-02-21T10:24:53;101891.47;;;11.29;100.00
24788;BME280;12883;52.662;5.196;2023-02-21T10:27:26;101891.34;;;11.45;100.00
24788;BME280;12883;52.662;5.196;2023-02-21T10:32:23;101884.69;;;11.27;100.00
24788;BME280;12883;52.662;5.196;2023-02-21T10:34:50;101898.88;;;11.42;100.00
24788;BME280;12883;52.662;5.196;2023-02-21T10:39:48;101894.50;;;11.49;100.00
24788;BME280;12883;52.662;5.196;2023-02-21T10:42:28;101903.81;;;11.45;100.00
24788;BME280;12883;52.662;5.196;2023-02-21T10:44:55;101899.81;;;11.49;100.00
24788;BME280;12883;52.662;5.196;2023-02-21T10:47:47;101889.72;;;11.44;100.00
24788;BME280;12883;52.662;5.196;2023-02-21T10:50:14;101903.47;;;11.48;100.00
24788;BME280;12883;52.662;5.196;2023-02-21T10:52:47;101900.50;;;11.43;100.00
24788;BME280;12883;52.662;5.196;2023-02-21T10:57:46;101903.06;;;11.59;100.00
24788;BME280;12883;52.662;5.196;2023-02-21T11:00:43;101892.56;;;11.57;100.00
24788;BME280;12883;52.662;5.196;2023-02-21T11:03:22;101899.59;;;11.58;100.00
24788;BME280;12883;52.662;5.196;2023-02-21T11:05:52;101896.56;;;11.61;100.00
24788;BME280;12883;52.662;5.196;2023-02-21T11:08:37;101900.06;;;11.62;100.00
24788;BME280;12883;52.662;5.196;2023-02-21T11:11:02;101902.19;;;11.66;100.00
24788;BME280;12883;52.662;5.196;2023-02-21T11:13:28;101900.63;;;11.72;100.00
24788;BME280;12883;52.662;5.196;2023-02-21T11:16:17;101900.09;;;11.76;100.00
24788;BME280;12883;52.662;5.196;2023-02-21T11:18:43;101916.59;;;11.72;100.00
24788;BME280;12883;52.662;5.196;2023-02-21T11:21:12;101899.91;;;11.78;100.00
24788;BME280;12883;52.662;5.196;2023-02-21T11:23:44;101910.09;;;11.89;100.00
24788;BME280;12883;52.662;5.196;2023-02-21T11:26:13;101906.16;;;11.85;100.00
24788;BME280;12883;52.662;5.196;2023-02-21T11:28:41;101897.16;;;11.86;100.00
24788;BME280;12883;52.662;5.196;2023-02-21T11:31:20;101847.56;;;11.56;100.00
24788;BME280;12883;52.662;5.196;2023-02-21T11:33:59;101847.69;;;11.62;100.00
24788;BME280;12883;52.662;5.196;2023-02-21T11:36:28;101885.34;;;11.88;100.00
24788;BME280;12883;52.662;5.196;2023-02-21T11:39:13;101897.63;;;11.89;100.00
24788;BME280;12883;52.662;5.196;2023-02-21T11:41:50;101899.13;;;11.92;100.00
24788;BME280;12883;52.662;5.196;2023-02-21T11:44:36;101897.00;;;11.87;100.00
24788;BME280;12883;52.662;5.196;2023-02-21T11:49:47;101885.34;;;11.88;100.00
24788;BME280;12883;52.662;5.196;2023-02-21T11:52:25;101865.16;;;11.79;100.00
24788;BME280;12883;52.662;5.196;2023-02-21T11:54:51;101885.53;;;11.87;100.00
24788;BME280;12883;52.662;5.196;2023-02-21T11:57:24;101886.91;;;11.83;100.00
24788;BME280;12883;52.662;5.196;2023-02-21T12:06:28;101872.59;;;11.84;100.00
24788;BME280;12883;52.662;5.196;2023-02-21T12:09:06;101877.38;;;11.88;100.00
24788;BME280;12883;52.662;5.196;2023-02-21T12:14:33;101877.19;;;11.90;100.00
24788;BME280;12883;52.662;5.196;2023-02-21T12:23:11;101866.19;;;11.93;100.00
24788;BME280;12883;52.662;5.196;2023-02-21T12:25:51;101822.31;;;11.60;100.00
24788;BME280;12883;52.662;5.196;2023-02-21T12:33:51;101837.66;;;11.72;100.00
24788;BME280;12883;52.662;5.196;2023-02-21T12:39:15;101854.44;;;11.87;100.00
24788;BME280;12883;52.662;5.196;2023-02-21T12:42:09;101856.66;;;11.84;100.00
24788;BME280;12883;52.662;5.196;2023-02-21T12:47:27;101850.59;;;11.90;100.00
24788;BME280;12883;52.662;5.196;2023-02-21T12:50:04;101851.22;;;11.92;100.00
24788;BME280;12883;52.662;5.196;2023-02-21T12:52:37;101865.34;;;11.92;100.00
24788;BME280;12883;52.662;5.196;2023-02-21T12:55:11;101844.69;;;11.80;100.00
24788;BME280;12883;52.662;5.196;2023-02-21T12:57:49;101850.31;;;11.85;100.00
24788;BME280;12883;52.662;5.196;2023-02-21T13:00:25;101855.00;;;11.83;100.00
24788;BME280;12883;52.662;5.196;2023-02-21T13:02:59;101852.97;;;11.85;100.00
24788;BME280;12883;52.662;5.196;2023-02-21T13:05:38;101851.66;;;11.81;100.00
24788;BME280;12883;52.662;5.196;2023-02-21T13:08:32;101809.44;;;11.49;100.00
24788;BME280;12883;52.662;5.196;2023-02-21T13:11:24;101840.47;;;11.85;100.00
24788;BME280;12883;52.662;5.196;2023-02-21T13:13:51;101845.06;;;11.77;100.00
24788;BME280;12883;52.662;5.196;2023-02-21T13:16:16;101847.81;;;11.69;100.00
24788;BME280;12883;52.662;5.196;2023-02-21T13:18:46;101851.66;;;11.66;100.00
24788;BME280;12883;52.662;5.196;2023-02-21T13:30:11;101815.00;;;11.54;100.00
24788;BME280;12883;52.662;5.196;2023-02-21T13:32:38;101825.72;;;11.68;100.00
24788;BME280;12883;52.662;5.196;2023-02-21T13:35:07;101823.69;;;11.70;100.00
24788;BME280;12883;52.662;5.196;2023-02-21T13:37:35;101828.19;;;11.70;100.00
24788;BME280;12883;52.662;5.196;2023-02-21T13:40:21;101823.53;;;11.72;100.00
24788;BME280;12883;52.662;5.196;2023-02-21T13:42:58;101798.09;;;11.55;100.00
24788;BME280;12883;52.662;5.196;2023-02-21T13:45:25;101817.56;;;11.70;100.00
24788;BME280;12883;52.662;5.196;2023-02-21T13:53:14;101793.63;;;11.33;100.00
24788;BME280;12883;52.662;5.196;2023-02-21T13:58:37;101818.75;;;11.45;100.00
24788;BME280;12883;52.662;5.196;2023-02-21T14:01:17;101813.81;;;11.42;100.00
24788;BME280;12883;52.662;5.196;2023-02-21T14:03:46;101805.31;;;11.46;100.00
24788;BME280;12883;52.662;5.196;2023-02-21T14:06:24;101803.91;;;11.36;100.00
24788;BME280;12883;52.662;5.196;2023-02-21T14:08:55;101803.19;;;11.42;100.00
24788;BME280;12883;52.662;5.196;2023-02-21T14:11:24;101807.13;;;11.46;100.00
24788;BME280;12883;52.662;5.196;2023-02-21T14:13:58;101801.16;;;11.44;100.00
24788;BME280;12883;52.662;5.196;2023-02-21T14:19:16;101746.75;;;11.03;100.00
24788;BME280;12883;52.662;5.196;2023-02-21T14:21:48;101795.28;;;11.34;100.00
24788;BME280;12883;52.662;5.196;2023-02-21T14:24:18;101793.63;;;11.33;100.00
24788;BME280;12883;52.662;5.196;2023-02-21T14:29:36;101792.63;;;11.34;100.00
24788;BME280;12883;52.662;5.196;2023-02-21T14:39:58;101777.81;;;11.17;100.00
24788;BME280;12883;52.662;5.196;2023-02-21T14:47:44;101789.84;;;11.27;100.00
24788;BME280;12883;52.662;5.196;2023-02-21T14:53:27;101797.72;;;11.21;100.00
24788;BME280;12883;52.662;5.196;2023-02-21T14:59:26;101786.81;;;11.16;100.00